sensor_id;sensor_type;location;lat;lon;timestamp;P1;durP1;ratioP1;P2;durP2;ratioP2
6953;SDS011;3516;47.980;8.808;2023-04-24T04:22:11;0.50;;;0.50;;
6953;SDS011;3516;47.980;8.808;2023-04-24T04:24:37;0.50;;;0.50;;
6953;SDS011;3516;47.980;8.808;2023-04-24T04:27:05;0.45;;;0.45;;
6953;SDS011;3516;47.980;8.808;2023-04-24T04:29:33;0.60;;;0.60;;
6953;SDS011;3516;47.980;8.808;2023-04-24T04:32:00;0.45;;;0.45;;
6953;SDS011;3516;47.980;8.808;2023-04-24T04:34:27;0.40;;;0.40;;
6953;SDS011;3516;47.980;8.808;2023-04-24T04:36:56;0.50;;;0.50;;
6953;SDS011;3516;47.980;8.808;2023-04-24T04:39:24;0.50;;;0.50;;
6953;SDS011;3516;47.980;8.808;2023-04-24T04:41:51;0.50;;;0.50;;
6953;SDS011;3516;47.980;8.808;2023-04-24T04:44:17;0.40;;;0.40;;
6953;SDS011;3516;47.980;8.808;2023-04-24T04:46:44;0.40;;;0.40;;
6953;SDS011;3516;47.980;8.808;2023-04-24T04:49:12;0.40;;;0.40;;
6953;SDS011;3516;47.980;8.808;2023-04-24T04:51:41;0.50;;;0.50;;
6953;SDS011;3516;47.980;8.808;2023-04-24T04:54:09;0.60;;;0.60;;
6953;SDS011;3516;47.980;8.808;2023-04-24T04:56:36;0.50;;;0.50;;
6953;SDS011;3516;47.980;8.808;2023-04-24T04:59:03;0.65;;;0.50;;
6953;SDS011;3516;47.980;8.808;2023-04-24T05:01:31;0.73;;;0.73;;
6953;SDS011;3516;47.980;8.808;2023-04-24T05:03:57;0.43;;;0.43;;
6953;SDS011;3516;47.980;8.808;2023-04-24T05:06:24;0.45;;;0.45;;
6953;SDS011;3516;47.980;8.808;2023-04-24T05:08:51;0.50;;;0.50;;
6953;SDS011;3516;47.980;8.808;2023-04-24T05:11:23;0.45;;;0.45;;
6953;SDS011;3516;47.980;8.808;2023-04-24T05:13:50;0.43;;;0.43;;
6953;SDS011;3516;47.980;8.808;2023-04-24T10:11:29;1.55;;;0.80;;
6953;SDS011;3516;47.980;8.808;2023-04-24T10:13:56;1.55;;;1.08;;
6953;SDS011;3516;47.980;8.808;2023-04-24T10:16:24;1.60;;;1.00;;
6953;SDS011;3516;47.980;8.808;2023-04-24T10:18:53;1.67;;;1.00;;
6953;SDS011;3516;47.980;8.808;2023-04-24T10:21:21;1.75;;;1.13;;
6953;SDS011;3516;47.980;8.808;2023-04-24T10:23:48;1.60;;;0.90;;
6953;SDS011;3516;47.980;8.808;2023-04-24T10:26:16;1.80;;;1.10;;
6953;SDS011;3516;47.980;8.808;2023-04-24T10:28:46;1.33;;;1.20;;
6953;SDS011;3516;47.980;8.808;2023-04-24T10:31:13;1.20;;;1.10;;
6953;SDS011;3516;47.980;8.808;2023-04-24T10:33:41;1.20;;;1.10;;
6953;SDS011;3516;47.980;8.808;2023-04-24T10:36:08;1.20;;;1.15;;
6953;SDS011;3516;47.980;8.808;2023-04-24T10:38:36;1.20;;;1.10;;
6953;SDS011;3516;47.980;8.808;2023-04-24T10:41:07;0.98;;;0.98;;
6953;SDS011;3516;47.980;8.808;2023-04-24T10:43:35;1.08;;;0.98;;
6953;SDS011;3516;47.980;8.808;2023-04-24T10:46:04;1.23;;;1.17;;
6953;SDS011;3516;47.980;8.808;2023-04-24T10:48:31;1.45;;;1.08;;
6953;SDS011;3516;47.980;8.808;2023-04-24T10:50:59;2.28;;;1.17;;
6953;SDS011;3516;47.980;8.808;2023-04-24T10:53:27;0.88;;;0.88;;
6953;SDS011;3516;47.980;8.808;2023-04-24T10:55:59;1.25;;;1.08;;
6953;SDS011;3516;47.980;8.808;2023-04-24T10:58:35;1.27;;;1.08;;
6953;SDS011;3516;47.980;8.808;2023-04-24T11:01:06;3.08;;;1.23;;
6953;SDS011;3516;47.980;8.808;2023-04-24T11:03:33;0.90;;;0.80;;
6953;SDS011;3516;47.980;8.808;2023-04-24T11:06:02;2.15;;;1.10;;
6953;SDS011;3516;47.980;8.808;2023-04-24T11:08:31;0.85;;;0.85;;
6953;SDS011;3516;47.980;8.808;2023-04-24T11:11:03;2.75;;;0.93;;
6953;SDS011;3516;47.980;8.808;2023-04-24T11:16:34;1.10;;;0.95;;
6953;SDS011;3516;47.980;8.808;2023-04-24T11:19:04;1.42;;;0.98;;
6953;SDS011;3516;47.980;8.808;2023-04-24T11:21:36;1.52;;;1.20;;
6953;SDS011;3516;47.980;8.808;2023-04-24T11:24:22;4.10;;;1.48;;
6953;SDS011;3516;47.980;8.808;2023-04-24T11:26:51;1.08;;;0.88;;
6953;SDS011;3516;47.980;8.808;2023-04-24T11:29:19;1.70;;;0.80;;
6953;SDS011;3516;47.980;8.808;2023-04-24T11:31:48;1.17;;;1.08;;
6953;SDS011;3516;47.980;8.808;2023-04-24T11:34:16;2.08;;;0.98;;
6953;SDS011;3516;47.980;8.808;2023-04-24T11:36:43;1.13;;;1.10;;
6953;SDS011;3516;47.980;8.808;2023-04-24T11:39:11;1.00;;;1.00;;
6953;SDS011;3516;47.980;8.808;2023-04-24T11:41:38;1.98;;;1.20;;
6953;SDS011;3516;47.980;8.808;2023-04-24T11:44:06;1.88;;;0.80;;
6953;SDS011;3516;47.980;8.808;2023-04-24T11:46:33;0.98;;;0.90;;
6953;SDS011;3516;47.980;8.808;2023-04-24T11:49:04;2.20;;;0.82;;
6953;SDS011;3516;47.980;8.808;2023-04-24T11:51:31;0.90;;;0.90;;
6953;SDS011;3516;47.980;8.808;2023-04-24T11:53:58;1.38;;;0.70;;
6953;SDS011;3516;47.980;8.808;2023-04-24T11:56:26;0.70;;;0.70;;
6953;SDS011;3516;47.980;8.808;2023-04-24T11:58:53;0.70;;;0.70;;
6953;SDS011;3516;47.980;8.808;2023-04-24T12:01:20;1.48;;;0.70;;
6953;SDS011;3516;47.980;8.808;2023-04-24T12:03:48;0.70;;;0.70;;
6953;SDS011;3516;47.980;8.808;2023-04-24T12:06:17;1.98;;;1.20;;
6953;SDS011;3516;47.980;8.808;2023-04-24T12:08:47;1.25;;;0.70;;
6953;SDS011;3516;47.980;8.808;2023-04-24T12:11:15;0.88;;;0.80;;
6953;SDS011;3516;47.980;8.808;2023-04-24T12:13:44;1.15;;;0.90;;
6953;SDS011;3516;47.980;8.808;2023-04-24T12:16:11;0.65;;;0.65;;
6953;SDS011;3516;47.980;8.808;2023-04-24T12:18:41;0.73;;;0.70;;
6953;SDS011;3516;47.980;8.808;2023-04-24T12:21:15;1.05;;;0.90;;
6953;SDS011;3516;47.980;8.808;2023-04-24T12:23:49;0.88;;;0.88;;
6953;SDS011;3516;47.980;8.808;2023-04-24T12:26:16;0.50;;;0.50;;
6953;SDS011;3516;47.980;8.808;2023-04-24T12:28:46;1.13;;;0.68;;
6953;SDS011;3516;47.980;8.808;2023-04-24T12:31:14;0.47;;;0.47;;
6953;SDS011;3516;47.980;8.808;2023-04-24T12:33:42;1.15;;;1.00;;
6953;SDS011;3516;47.980;8.808;2023-04-24T12:36:09;1.27;;;1.27;;
6953;SDS011;3516;47.980;8.808;2023-04-24T12:38:38;9.35;;;1.50;;
6953;SDS011;3516;47.980;8.808;2023-04-24T12:41:06;2.42;;;1.00;;
6953;SDS011;3516;47.980;8.808;2023-04-24T12:43:33;1.15;;;1.05;;
6953;SDS011;3516;47.980;8.808;2023-04-24T12:46:01;1.67;;;0.77;;
6953;SDS011;3516;47.980;8.808;2023-04-24T12:48:29;1.00;;;0.90;;
6953;SDS011;3516;47.980;8.808;2023-04-24T12:50:56;0.88;;;0.88;;
6953;SDS011;3516;47.980;8.808;2023-04-24T12:53:26;0.80;;;0.80;;
6953;SDS011;3516;47.980;8.808;2023-04-24T12:55:55;0.75;;;0.75;;
6953;SDS011;3516;47.980;8.808;2023-04-24T12:58:22;1.52;;;1.13;;
6953;SDS011;3516;47.980;8.808;2023-04-24T13:00:49;0.93;;;0.93;;
6953;SDS011;3516;47.980;8.808;2023-04-24T13:03:16;1.52;;;1.00;;
6953;SDS011;3516;47.980;8.808;2023-04-24T13:05:43;3.63;;;1.15;;
6953;SDS011;3516;47.980;8.808;2023-04-24T13:08:10;1.48;;;1.08;;
6953;SDS011;3516;47.980;8.808;2023-04-24T13:10:37;0.88;;;0.88;;
6953;SDS011;3516;47.980;8.808;2023-04-24T13:13:06;1.05;;;0.95;;
6953;SDS011;3516;47.980;8.808;2023-04-24T13:15:33;0.88;;;0.88;;
6953;SDS011;3516;47.980;8.808;2023-04-24T13:18:00;1.65;;;0.93;;
6953;SDS011;3516;47.980;8.808;2023-04-24T13:20:27;0.85;;;0.70;;
6953;SDS011;3516;47.980;8.808;2023-04-24T13:22:53;1.75;;;0.70;;
6953;SDS011;3516;47.980;8.808;2023-04-24T13:25:20;4.38;;;0.90;;
6953;SDS011;3516;47.980;8.808;2023-04-24T13:27:48;0.80;;;0.80;;
6953;SDS011;3516;47.980;8.808;2023-04-24T13:30:17;1.30;;;0.70;;
6953;SDS011;3516;47.980;8.808;2023-04-24T13:32:44;0.77;;;0.77;;
6953;SDS011;3516;47.980;8.808;2023-04-24T13:35:10;0.60;;;0.60;;
6953;SDS011;3516;47.980;8.808;2023-04-24T13:37:37;0.85;;;0.85;;
6953;SDS011;3516;47.980;8.808;2023-04-24T13:40:04;0.88;;;0.88;;
6953;SDS011;3516;47.980;8.808;2023-04-24T13:42:32;0.90;;;0.90;;
6953;SDS011;3516;47.980;8.808;2023-04-24T13:44:59;8.77;;;2.25;;
6953;SDS011;3516;47.980;8.808;2023-04-24T13:47:27;6.32;;;1.50;;
6953;SDS011;3516;47.980;8.808;2023-04-24T13:49:54;1.05;;;0.93;;
6953;SDS011;3516;47.980;8.808;2023-04-24T13:52:21;1.38;;;0.90;;
6953;SDS011;3516;47.980;8.808;2023-04-24T13:54:47;2.42;;;0.90;;
6953;SDS011;3516;47.980;8.808;2023-04-24T13:57:14;0.60;;;0.60;;
6953;SDS011;3516;47.980;8.808;2023-04-24T13:59:41;3.35;;;0.80;;
6953;SDS011;3516;47.980;8.808;2023-04-24T14:02:08;2.85;;;0.70;;
6953;SDS011;3516;47.980;8.808;2023-04-24T14:04:36;1.33;;;1.00;;
6953;SDS011;3516;47.980;8.808;2023-04-24T14:07:03;2.17;;;0.60;;
6953;SDS011;3516;47.980;8.808;2023-04-24T14:09:30;1.05;;;0.70;;
6953;SDS011;3516;47.980;8.808;2023-04-24T14:11:56;1.10;;;0.80;;
6953;SDS011;3516;47.980;8.808;2023-04-24T14:14:23;1.17;;;0.80;;
6953;SDS011;3516;47.980;8.808;2023-04-24T14:16:50;0.60;;;0.60;;
6953;SDS011;3516;47.980;8.808;2023-04-24T14:19:17;0.70;;;0.70;;
6953;SDS011;3516;47.980;8.808;2023-04-24T14:21:45;1.05;;;0.70;;
6953;SDS011;3516;47.980;8.808;2023-04-24T14:24:11;1.27;;;0.90;;
6953;SDS011;3516;47.980;8.808;2023-04-24T14:26:38;0.60;;;0.60;;
6953;SDS011;3516;47.980;8.808;2023-04-24T14:29:05;0.77;;;0.77;;
6953;SDS011;3516;47.980;8.808;2023-04-24T14:31:32;0.82;;;0.80;;
6953;SDS011;3516;47.980;8.808;2023-04-24T14:33:58;0.85;;;0.85;;
6953;SDS011;3516;47.980;8.808;2023-04-24T14:36:25;1.55;;;0.70;;
6953;SDS011;3516;47.980;8.808;2023-04-24T14:38:53;1.05;;;0.80;;
6953;SDS011;3516;47.980;8.808;2023-04-24T14:41:20;1.00;;;0.90;;
6953;SDS011;3516;47.980;8.808;2023-04-24T14:43:46;2.63;;;1.10;;
6953;SDS011;3516;47.980;8.808;2023-04-24T14:46:13;1.45;;;0.90;;
6953;SDS011;3516;47.980;8.808;2023-04-24T14:48:40;0.70;;;0.70;;
6953;SDS011;3516;47.980;8.808;2023-04-24T14:51:07;1.05;;;0.75;;
6953;SDS011;3516;47.980;8.808;2023-04-24T14:53:34;0.85;;;0.70;;
6953;SDS011;3516;47.980;8.808;2023-04-24T14:56:02;1.38;;;0.90;;
6953;SDS011;3516;47.980;8.808;2023-04-24T14:58:29;0.95;;;0.95;;
6953;SDS011;3516;47.980;8.808;2023-04-24T15:00:56;1.00;;;0.80;;
6953;SDS011;3516;47.980;8.808;2023-04-24T15:03:23;0.82;;;0.82;;
6953;SDS011;3516;47.980;8.808;2023-04-24T15:05:51;0.90;;;0.90;;
6953;SDS011;3516;47.980;8.808;2023-04-24T15:08:18;0.70;;;0.70;;
6953;SDS011;3516;47.980;8.808;2023-04-24T15:10:45;0.70;;;0.70;;
6953;SDS011;3516;47.980;8.808;2023-04-24T15:13:13;0.68;;;0.68;;
6953;SDS011;3516;47.980;8.808;2023-04-24T15:15:40;1.00;;;0.70;;
6953;SDS011;3516;47.980;8.808;2023-04-24T15:18:07;0.63;;;0.63;;
6953;SDS011;3516;47.980;8.808;2023-04-24T15:20:36;1.30;;;0.70;;
6953;SDS011;3516;47.980;8.808;2023-04-24T15:23:04;0.77;;;0.77;;
6953;SDS011;3516;47.980;8.808;2023-04-24T15:25:30;1.10;;;1.10;;
6953;SDS011;3516;47.980;8.808;2023-04-24T15:27:58;0.75;;;0.75;;
6953;SDS011;3516;47.980;8.808;2023-04-24T15:30:26;0.90;;;0.90;;
6953;SDS011;3516;47.980;8.808;2023-04-24T15:32:53;2.78;;;0.80;;
6953;SDS011;3516;47.980;8.808;2023-04-24T15:35:20;0.93;;;0.88;;
6953;SDS011;3516;47.980;8.808;2023-04-24T15:37:48;1.35;;;1.27;;
6953;SDS011;3516;47.980;8.808;2023-04-24T15:40:14;1.10;;;1.00;;
6953;SDS011;3516;47.980;8.808;2023-04-24T15:42:42;1.00;;;1.00;;
6953;SDS011;3516;47.980;8.808;2023-04-24T15:45:09;1.13;;;1.13;;
6953;SDS011;3516;47.980;8.808;2023-04-24T15:47:37;1.45;;;0.98;;
6953;SDS011;3516;47.980;8.808;2023-04-24T15:50:05;0.88;;;0.88;;
6953;SDS011;3516;47.980;8.808;2023-04-24T15:52:34;0.93;;;0.80;;
6953;SDS011;3516;47.980;8.808;2023-04-24T15:55:02;1.60;;;0.80;;
6953;SDS011;3516;47.980;8.808;2023-04-24T15:57:29;1.20;;;1.10;;
6953;SDS011;3516;47.980;8.808;2023-04-24T15:59:56;0.82;;;0.82;;
6953;SDS011;3516;47.980;8.808;2023-04-24T16:02:22;0.85;;;0.85;;
6953;SDS011;3516;47.980;8.808;2023-04-24T16:04:50;1.00;;;1.00;;
6953;SDS011;3516;47.980;8.808;2023-04-24T16:07:18;1.70;;;0.82;;
6953;SDS011;3516;47.980;8.808;2023-04-24T16:09:45;1.13;;;1.00;;
6953;SDS011;3516;47.980;8.808;2023-04-24T16:12:12;0.90;;;0.90;;
6953;SDS011;3516;47.980;8.808;2023-04-24T16:14:38;0.80;;;0.77;;
6953;SDS011;3516;47.980;8.808;2023-04-24T16:17:05;3.75;;;1.00;;
6953;SDS011;3516;47.980;8.808;2023-04-24T16:19:32;0.80;;;0.80;;
6953;SDS011;3516;47.980;8.808;2023-04-24T16:22:00;0.90;;;0.90;;
6953;SDS011;3516;47.980;8.808;2023-04-24T16:24:27;1.05;;;0.80;;
6953;SDS011;3516;47.980;8.808;2023-04-24T16:26:54;0.88;;;0.88;;
6953;SDS011;3516;47.980;8.808;2023-04-24T16:29:21;1.00;;;0.90;;
6953;SDS011;3516;47.980;8.808;2023-04-24T16:31:48;1.05;;;1.05;;
6953;SDS011;3516;47.980;8.808;2023-04-24T16:34:15;1.13;;;0.95;;
6953;SDS011;3516;47.980;8.808;2023-04-24T16:36:42;1.05;;;1.05;;
6953;SDS011;3516;47.980;8.808;2023-04-24T16:39:10;1.00;;;1.00;;
6953;SDS011;3516;47.980;8.808;2023-04-24T16:41:37;1.17;;;1.10;;
6953;SDS011;3516;47.980;8.808;2023-04-24T16:44:03;1.38;;;1.27;;
6953;SDS011;3516;47.980;8.808;2023-04-24T16:46:31;1.10;;;1.10;;
6953;SDS011;3516;47.980;8.808;2023-04-24T16:48:57;2.15;;;0.90;;
6953;SDS011;3516;47.980;8.808;2023-04-24T16:51:24;1.13;;;1.13;;
6953;SDS011;3516;47.980;8.808;2023-04-24T16:53:51;1.45;;;1.40;;
6953;SDS011;3516;47.980;8.808;2023-04-24T16:56:20;0.80;;;0.80;;
6953;SDS011;3516;47.980;8.808;2023-04-24T16:58:47;1.25;;;1.15;;
6953;SDS011;3516;47.980;8.808;2023-04-24T17:01:14;0.80;;;0.80;;
6953;SDS011;3516;47.980;8.808;2023-04-24T17:03:40;1.25;;;1.00;;
6953;SDS011;3516;47.980;8.808;2023-04-24T17:06:07;1.02;;;0.90;;
6953;SDS011;3516;47.980;8.808;2023-04-24T17:08:34;1.05;;;1.05;;
6953;SDS011;3516;47.980;8.808;2023-04-24T17:11:01;1.55;;;1.10;;
6953;SDS011;3516;47.980;8.808;2023-04-24T17:13:29;1.20;;;1.20;;
6953;SDS011;3516;47.980;8.808;2023-04-24T17:15:56;0.90;;;0.90;;
6953;SDS011;3516;47.980;8.808;2023-04-24T17:18:23;1.02;;;0.98;;
6953;SDS011;3516;47.980;8.808;2023-04-24T17:20:50;0.75;;;0.75;;
6953;SDS011;3516;47.980;8.808;2023-04-24T17:23:17;1.23;;;0.98;;
6953;SDS011;3516;47.980;8.808;2023-04-24T17:25:45;1.55;;;0.90;;
6953;SDS011;3516;47.980;8.808;2023-04-24T17:28:14;1.95;;;1.30;;
6953;SDS011;3516;47.980;8.808;2023-04-24T17:30:50;1.40;;;1.30;;
6953;SDS011;3516;47.980;8.808;2023-04-24T17:33:18;1.13;;;1.10;;
6953;SDS011;3516;47.980;8.808;2023-04-24T17:35:45;1.00;;;0.95;;
6953;SDS011;3516;47.980;8.808;2023-04-24T17:38:13;2.10;;;1.00;;
6953;SDS011;3516;47.980;8.808;2023-04-24T17:40:40;2.05;;;1.10;;
6953;SDS011;3516;47.980;8.808;2023-04-24T17:43:10;2.58;;;1.10;;
6953;SDS011;3516;47.980;8.808;2023-04-24T17:45:55;0.88;;;0.88;;
6953;SDS011;3516;47.980;8.808;2023-04-24T17:48:25;1.10;;;1.10;;
6953;SDS011;3516;47.980;8.808;2023-04-24T17:50:54;1.80;;;1.30;;
6953;SDS011;3516;47.980;8.808;2023-04-24T17:53:23;1.30;;;1.20;;
6953;SDS011;3516;47.980;8.808;2023-04-24T17:55:57;1.27;;;1.20;;
6953;SDS011;3516;47.980;8.808;2023-04-24T17:58:27;1.10;;;1.10;;
6953;SDS011;3516;47.980;8.808;2023-04-24T18:01:03;1.80;;;1.20;;
6953;SDS011;3516;47.980;8.808;2023-04-24T18:03:33;1.35;;;1.27;;
6953;SDS011;3516;47.980;8.808;2023-04-24T18:06:09;1.20;;;1.20;;
6953;SDS011;3516;47.980;8.808;2023-04-24T18:08:42;1.20;;;1.20;;
6953;SDS011;3516;47.980;8.808;2023-04-24T18:11:09;2.45;;;2.30;;
6953;SDS011;3516;47.980;8.808;2023-04-24T18:13:39;3.95;;;2.92;;
6953;SDS011;3516;47.980;8.808;2023-04-24T18:16:18;3.60;;;3.25;;
6953;SDS011;3516;47.980;8.808;2023-04-24T18:18:48;2.95;;;2.75;;
6953;SDS011;3516;47.980;8.808;2023-04-24T18:21:20;2.83;;;2.63;;
6953;SDS011;3516;47.980;8.808;2023-04-24T18:23:47;1.77;;;1.67;;
6953;SDS011;3516;47.980;8.808;2023-04-24T18:26:14;1.55;;;1.45;;
6953;SDS011;3516;47.980;8.808;2023-04-24T18:28:50;1.38;;;1.38;;
6953;SDS011;3516;47.980;8.808;2023-04-24T18:31:19;2.15;;;1.48;;
6953;SDS011;3516;47.980;8.808;2023-04-24T18:33:46;1.38;;;1.38;;
6953;SDS011;3516;47.980;8.808;2023-04-24T18:36:13;1.15;;;1.15;;
6953;SDS011;3516;47.980;8.808;2023-04-24T18:38:42;1.23;;;1.23;;
6953;SDS011;3516;47.980;8.808;2023-04-24T18:41:12;1.38;;;1.27;;
6953;SDS011;3516;47.980;8.808;2023-04-24T18:43:41;2.67;;;1.33;;
6953;SDS011;3516;47.980;8.808;2023-04-24T18:46:08;1.45;;;1.33;;
6953;SDS011;3516;47.980;8.808;2023-04-24T18:48:36;1.42;;;1.33;;
6953;SDS011;3516;47.980;8.808;2023-04-24T18:51:03;1.40;;;1.30;;
6953;SDS011;3516;47.980;8.808;2023-04-24T18:53:30;2.67;;;1.27;;
6953;SDS011;3516;47.980;8.808;2023-04-24T18:55:57;2.15;;;1.20;;
6953;SDS011;3516;47.980;8.808;2023-04-24T18:58:24;2.47;;;1.30;;
6953;SDS011;3516;47.980;8.808;2023-04-24T19:01:00;1.35;;;1.25;;
6953;SDS011;3516;47.980;8.808;2023-04-24T19:03:37;1.40;;;1.40;;
6953;SDS011;3516;47.980;8.808;2023-04-24T19:06:08;1.33;;;1.23;;
6953;SDS011;3516;47.980;8.808;2023-04-24T19:08:35;1.20;;;1.20;;
6953;SDS011;3516;47.980;8.808;2023-04-24T19:11:02;1.35;;;1.33;;
6953;SDS011;3516;47.980;8.808;2023-04-24T19:13:31;1.65;;;1.20;;
6953;SDS011;3516;47.980;8.808;2023-04-24T19:16:00;1.60;;;1.50;;
6953;SDS011;3516;47.980;8.808;2023-04-24T19:18:28;1.20;;;1.20;;
6953;SDS011;3516;47.980;8.808;2023-04-24T19:21:11;2.10;;;1.48;;
6953;SDS011;3516;47.980;8.808;2023-04-24T19:23:42;1.20;;;1.10;;
6953;SDS011;3516;47.980;8.808;2023-04-24T19:26:14;2.00;;;1.50;;
6953;SDS011;3516;47.980;8.808;2023-04-24T19:28:43;1.30;;;1.30;;
6953;SDS011;3516;47.980;8.808;2023-04-24T19:31:10;1.55;;;1.27;;
6953;SDS011;3516;47.980;8.808;2023-04-24T19:33:39;1.42;;;1.42;;
6953;SDS011;3516;47.980;8.808;2023-04-24T19:36:14;1.20;;;1.20;;
6953;SDS011;3516;47.980;8.808;2023-04-24T19:38:42;2.65;;;1.50;;
6953;SDS011;3516;47.980;8.808;2023-04-24T19:41:12;1.60;;;1.50;;
6953;SDS011;3516;47.980;8.808;2023-04-24T19:43:41;1.63;;;1.52;;
6953;SDS011;3516;47.980;8.808;2023-04-24T19:46:15;1.50;;;1.40;;
6953;SDS011;3516;47.980;8.808;2023-04-24T19:48:47;2.10;;;1.30;;
6953;SDS011;3516;47.980;8.808;2023-04-24T19:51:17;1.40;;;1.40;;
6953;SDS011;3516;47.980;8.808;2023-04-24T19:53:49;1.48;;;1.33;;
6953;SDS011;3516;47.980;8.808;2023-04-24T19:56:26;1.20;;;1.20;;
6953;SDS011;3516;47.980;8.808;2023-04-24T19:58:58;1.10;;;1.10;;
6953;SDS011;3516;47.980;8.808;2023-04-24T20:01:28;0.90;;;0.90;;
6953;SDS011;3516;47.980;8.808;2023-04-24T20:03:57;1.00;;;1.00;;
6953;SDS011;3516;47.980;8.808;2023-04-24T20:06:28;1.10;;;1.10;;
6953;SDS011;3516;47.980;8.808;2023-04-24T20:08:58;1.23;;;1.20;;
6953;SDS011;3516;47.980;8.808;2023-04-24T20:11:30;1.02;;;1.02;;
6953;SDS011;3516;47.980;8.808;2023-04-24T20:14:06;1.30;;;1.20;;
6953;SDS011;3516;47.980;8.808;2023-04-24T20:16:33;1.48;;;1.38;;
6953;SDS011;3516;47.980;8.808;2023-04-24T20:19:05;1.40;;;1.20;;
6953;SDS011;3516;47.980;8.808;2023-04-24T20:21:40;0.90;;;0.90;;
6953;SDS011;3516;47.980;8.808;2023-04-24T20:24:13;0.98;;;0.98;;
6953;SDS011;3516;47.980;8.808;2023-04-24T20:26:40;1.15;;;1.15;;
6953;SDS011;3516;47.980;8.808;2023-04-24T20:29:10;1.23;;;1.20;;
6953;SDS011;3516;47.980;8.808;2023-04-24T20:31:40;1.15;;;1.15;;
6953;SDS011;3516;47.980;8.808;2023-04-24T20:34:15;1.02;;;1.02;;
6953;SDS011;3516;47.980;8.808;2023-04-24T20:36:44;0.90;;;0.90;;
6953;SDS011;3516;47.980;8.808;2023-04-24T20:39:23;1.30;;;1.20;;
6953;SDS011;3516;47.980;8.808;2023-04-24T20:41:59;1.20;;;1.20;;
6953;SDS011;3516;47.980;8.808;2023-04-24T20:44:30;1.30;;;1.30;;
6953;SDS011;3516;47.980;8.808;2023-04-24T20:47:00;1.10;;;1.10;;
6953;SDS011;3516;47.980;8.808;2023-04-24T20:49:28;1.02;;;1.00;;
6953;SDS011;3516;47.980;8.808;2023-04-24T20:52:11;1.00;;;1.00;;
6953;SDS011;3516;47.980;8.808;2023-04-24T20:54:38;1.38;;;1.27;;
6953;SDS011;3516;47.980;8.808;2023-04-24T20:57:06;1.35;;;1.35;;
6953;SDS011;3516;47.980;8.808;2023-04-24T20:59:35;1.00;;;0.90;;
6953;SDS011;3516;47.980;8.808;2023-04-24T21:02:05;1.10;;;1.10;;
6953;SDS011;3516;47.980;8.808;2023-04-24T21:04:40;1.40;;;1.40;;
6953;SDS011;3516;47.980;8.808;2023-04-24T21:07:07;1.20;;;1.20;;
6953;SDS011;3516;47.980;8.808;2023-04-24T21:09:37;1.00;;;1.00;;
6953;SDS011;3516;47.980;8.808;2023-04-24T21:12:04;0.98;;;0.98;;
6953;SDS011;3516;47.980;8.808;2023-04-24T21:14:33;1.20;;;1.20;;
6953;SDS011;3516;47.980;8.808;2023-04-24T21:17:02;1.70;;;1.15;;
6953;SDS011;3516;47.980;8.808;2023-04-24T21:19:31;4.55;;;1.30;;
6953;SDS011;3516;47.980;8.808;2023-04-24T21:22:00;1.20;;;1.20;;
6953;SDS011;3516;47.980;8.808;2023-04-24T21:24:29;1.30;;;1.30;;
6953;SDS011;3516;47.980;8.808;2023-04-24T21:26:56;1.02;;;1.02;;
6953;SDS011;3516;47.980;8.808;2023-04-24T21:29:26;1.55;;;1.45;;
6953;SDS011;3516;47.980;8.808;2023-04-24T21:32:01;1.50;;;1.50;;
6953;SDS011;3516;47.980;8.808;2023-04-24T21:34:31;1.50;;;1.50;;
6953;SDS011;3516;47.980;8.808;2023-04-24T21:37:04;1.20;;;1.20;;
6953;SDS011;3516;47.980;8.808;2023-04-24T21:39:33;1.17;;;1.17;;
6953;SDS011;3516;47.980;8.808;2023-04-24T21:42:02;1.40;;;1.40;;
6953;SDS011;3516;47.980;8.808;2023-04-24T21:44:31;1.20;;;1.20;;
6953;SDS011;3516;47.980;8.808;2023-04-24T21:47:03;1.40;;;1.30;;
